Palo Alto, CA

7:07 PM PDT on September 14, 2014 (GMT -0700)
Old Palo Alto (Waverley St) | Change Station
CLOSE
Current Station
Personal Weather Station
Location: Palo Alto, CA
Elevation: 27 ft
Nearby Weather Stations

Elev 27 ft 37.44 °N, 122.14 °W | Updated 2 seconds ago

Clear
Clear
71.4 °F
Feels Like 76 °F
N
0.6
Wind Variable Wind from East
Gusts 2.6 mph

Today
High -- | Low -- °F
--% Chance of Precip.
Yesterday
High -- | Low -- °F
Precip. -- in
6:49 AM 7:17 PM
Waning Gibbous, 60% visible
Pressure 29.80 in
Visibility 30.0 miles
Clouds Clear
Heat Index 76 °F
Dew Point 55 °F
Humidity 57%
Rainfall 0.00 in
Snow Depth 0 in , 0 in , 0 in
UV 0 out of 12
Pollen 6.20 out of 12
Air Quality Not available.
Flu Activity Not available.
METAR KPAO 150147Z 32010KT 30SM SKC 22/16 A2980

More Conditions Fewer Conditions

Pressure 29.80 in
Visibility 30.0 miles
Clouds Clear
Heat Index 76 °F
Dew Point 55 °F
Humidity 57%
Rainfall 0.00 in
Snow Depth 0 in , 0 in , 0 in
UV 0 out of 12
Pollen 6.20 out of 12
Air Quality Not available.
Flu Activity Not available.
METAR KPAO 150147Z 32010KT 30SM SKC 22/16 A2980

More Conditions Fewer Conditions

10-Day Weather Forecast

Almanac

Astronomy

Sep. 14, 2014 Rise Set
Actual Time 6:49 AM PDT 7:17 PM PDT
Civil Twilight 6:23 AM PDT 7:43 PM PDT
Nautical Twilight 5:52 AM PDT 8:14 PM PDT
Astronomical Twilight 5:21 AM PDT 8:46 PM PDT
Moon 11:21 PM PDT (9/14) 12:54 PM PDT (9/14)
Length of Visible Light 13h 20m
Length of Day
12h 27m
Tomorrow will be 2m 23s shorter.
Waning Gibbous, 60% of the Moon is Illuminated
Today
Waning Gibbous
Sep 15
Last Quarter
Sep 24
New
Oct 1
First Quarter
Oct 8
Full

Today's Extremes

State Highs State Lows

Community

WunderPhotos

Upload Photos

1,753,371 photos uploaded!

Nearby

Air Quality

  Air Quality AQ Index Pollutant
Yesterday Moderate
PM2.5
Yesterday Good
OZONE
Sunday Good
PM2.5
Monday Good
PM2.5
Tuesday Good
PM2.5
Wednesday Good
PM2.5
Thursday Good
PM2.5
Friday Good
OZONE

Snow Depth

Station Depth Elevation
Adin Mountain 0 in 6200 ft
Summit Meadow 0 in 9122 ft
Monitor Pass 0 in 8350 ft
Leavitt Meadows 0 in 7200 ft
CSS Lab 0 in 6900 ft

Earthquake Activity

City Distance Mag. Time & Date
Cobb, California 101 miles 2.8 11:07 AM PDT
2014-09-14
Ridgemark, California 70 miles 2.6 12:44 PM PDT
2014-09-12
Gonzales, California 76 miles 2.6 11:50 AM PDT
2014-09-11
Minimum magnitude displayed is 2.5.

Coastal Water Temperatures

Place Temperature
No Stations Reporting

Nearby Weather Stations